Time;durP1;ratioP1;P1;durP2;ratioP2;P2;SDS_P1;SDS_P2;PMS_P1;PMS_P2;Temp;Humidity;BMP_temperature;BMP_pressure;BME280_temperature;BME280_humidity;BME280_pressure;Samples;Min_cycle;Max_cycle;Signal;HPM_P1;HPM_P2
2021/11/05 00:00:33;;;;;;;;;;;7.40;99.90;;;;;;5070126;28;20257;-86
2021/11/05 00:02:58;;;;;;;;;;;7.40;99.90;;;;;;5070455;28;19927;-86
2021/11/05 00:05:28;;;;;;;;;;;7.50;99.90;;;;;;5070184;28;19936;-86
2021/11/05 00:07:54;;;;;;;;;;;7.50;99.90;;;;;;5052492;28;19948;-86
2021/11/05 00:10:19;;;;;;;;;;;7.50;99.90;;;;;;5070319;28;20369;-86
2021/11/05 00:12:46;;;;;;;;;;;7.40;99.90;;;;;;5070001;28;19920;-87
2021/11/05 00:15:11;;;;;;;;;;;7.40;99.90;;;;;;5070052;28;19909;-86
2021/11/05 00:17:37;;;;;;;;;;;7.40;99.90;;;;;;5051902;28;19908;-86
2021/11/05 00:20:04;;;;;;;;;;;7.40;99.90;;;;;;5070438;28;19928;-86
2021/11/05 00:22:29;;;;;;;;;;;7.40;99.90;;;;;;5069997;28;19994;-86
2021/11/05 00:24:55;;;;;;;;;;;7.30;99.90;;;;;;5070041;28;20010;-86
2021/11/05 00:27:20;;;;;;;;;;;7.30;99.90;;;;;;5070266;28;20373;-86
2021/11/05 00:29:46;;;;;;;;;;;7.30;99.90;;;;;;5069624;28;19954;-86
2021/11/05 00:32:12;;;;;;;;;;;7.20;99.90;;;;;;5051866;28;19970;-84
2021/11/05 00:34:37;;;;;;;;;;;7.30;99.90;;;;;;5051830;28;19916;-86
2021/11/05 00:37:03;;;;;;;;;;;7.30;99.90;;;;;;5070217;28;19908;-86
2021/11/05 00:39:29;;;;;;;;;;;7.30;99.90;;;;;;5069959;28;19913;-86
2021/11/05 00:41:57;;;;;;;;;;;7.30;99.90;;;;;;5051885;28;20415;-86
2021/11/05 00:44:22;;;;;;;;;;;7.30;99.90;;;;;;5069996;28;20465;-86
2021/11/05 00:46:48;;;;;;;;;;;7.20;99.90;;;;;;5069507;28;19916;-86
2021/11/05 00:49:14;;;;;;;;;;;7.20;99.90;;;;;;5062543;28;20217;-86
2021/11/05 00:51:39;;;;;;;;;;;7.30;99.90;;;;;;5049814;28;19960;-86
2021/11/05 00:54:05;;;;;;;;;;;7.30;99.90;;;;;;5054765;28;20384;-86
2021/11/05 00:56:31;;;;;;;;;;;7.30;99.90;;;;;;5051759;28;19909;-86
2021/11/05 00:58:56;;;;;;;;;;;7.40;99.90;;;;;;5051563;28;20374;-86
2021/11/05 01:01:22;;;;;;;;;;;7.20;99.90;;;;;;5056712;28;20376;-86
2021/11/05 01:03:47;;;;;;;;;;;7.30;99.90;;;;;;5031351;28;19963;-86
2021/11/05 01:06:14;;;;;;;;;;;7.20;99.90;;;;;;5052190;28;19912;-86
2021/11/05 01:08:40;;;;;;;;;;;7.30;99.90;;;;;;5035540;28;19915;-86
2021/11/05 01:11:06;;;;;;;;;;;7.30;99.90;;;;;;5053523;28;19999;-86
2021/11/05 01:13:31;;;;;;;;;;;7.30;99.90;;;;;;5053683;28;20343;-85
2021/11/05 01:15:57;;;;;;;;;;;7.30;99.90;;;;;;5053273;28;19939;-86
2021/11/05 01:18:23;;;;;;;;;;;7.20;99.90;;;;;;5035503;28;19909;-86
2021/11/05 01:20:48;;;;;;;;;;;7.30;99.90;;;;;;5052997;28;19916;-86
2021/11/05 01:23:14;;;;;;;;;;;7.20;99.90;;;;;;5053422;28;19909;-86
2021/11/05 01:25:40;;;;;;;;;;;7.20;99.90;;;;;;5035019;28;19917;-86
2021/11/05 01:28:05;;;;;;;;;;;7.30;99.90;;;;;;5035013;28;19908;-83
2021/11/05 01:30:31;;;;;;;;;;;7.30;99.90;;;;;;5034626;28;19909;-86
2021/11/05 01:32:56;;;;;;;;;;;7.40;99.90;;;;;;5035218;28;19909;-85
2021/11/05 01:35:22;;;;;;;;;;;7.40;99.90;;;;;;5053155;28;20254;-86
2021/11/05 01:37:47;;;;;;;;;;;7.40;99.90;;;;;;5034889;28;19909;-86
2021/11/05 01:40:14;;;;;;;;;;;7.50;99.90;;;;;;5052918;28;19909;-86
2021/11/05 01:42:39;;;;;;;;;;;7.50;99.90;;;;;;5051305;28;20300;-86
2021/11/05 01:45:06;;;;;;;;;;;7.50;99.90;;;;;;5052631;28;19921;-86
2021/11/05 01:47:31;;;;;;;;;;;7.60;99.90;;;;;;5052675;28;19955;-86
2021/11/05 01:49:57;;;;;;;;;;;7.60;99.90;;;;;;5052761;28;19913;-86
2021/11/05 01:52:23;;;;;;;;;;;7.60;99.90;;;;;;5052958;28;19909;-83
2021/11/05 01:54:50;;;;;;;;;;;7.70;99.90;;;;;;5053011;28;19944;-86
2021/11/05 01:57:15;;;;;;;;;;;7.80;99.90;;;;;;5052870;28;19913;-85
2021/11/05 01:59:41;;;;;;;;;;;7.90;99.90;;;;;;5052343;28;19909;-86
2021/11/05 02:02:08;;;;;;;;;;;8.00;99.90;;;;;;5052618;28;20381;-86
2021/11/05 02:04:34;;;;;;;;;;;8.00;99.90;;;;;;5034689;28;20396;-86
2021/11/05 02:06:59;;;;;;;;;;;8.10;99.90;;;;;;5052529;28;19908;-86
2021/11/05 02:09:27;;;;;;;;;;;8.10;99.90;;;;;;5052558;28;19913;-86
2021/11/05 02:11:54;;;;;;;;;;;8.00;99.90;;;;;;5052187;28;19931;-86
2021/11/05 02:14:21;;;;;;;;;;;8.10;99.90;;;;;;5052484;28;19908;-86
2021/11/05 02:16:49;;;;;;;;;;;8.20;99.90;;;;;;5050931;28;19909;-86
2021/11/05 02:19:16;;;;;;;;;;;8.20;99.90;;;;;;5034254;28;19909;-86
2021/11/05 02:21:42;;;;;;;;;;;8.30;99.90;;;;;;5051280;28;19912;-86
2021/11/05 02:24:08;;;;;;;;;;;8.40;99.90;;;;;;5034233;28;19912;-86
2021/11/05 02:26:34;;;;;;;;;;;8.40;99.90;;;;;;5033741;28;19996;-85
2021/11/05 02:28:59;;;;;;;;;;;8.40;99.90;;;;;;5052243;28;19909;-86
2021/11/05 02:31:25;;;;;;;;;;;8.40;99.90;;;;;;5033902;28;19912;-86
2021/11/05 02:33:51;;;;;;;;;;;8.40;99.90;;;;;;5051994;28;19908;-84
2021/11/05 02:36:16;;;;;;;;;;;8.40;99.90;;;;;;5051875;28;19909;-84
2021/11/05 02:38:42;;;;;;;;;;;8.30;99.90;;;;;;5051819;28;19909;-84
2021/11/05 02:41:07;;;;;;;;;;;8.30;99.90;;;;;;5051680;28;19948;-84
2021/11/05 02:43:33;;;;;;;;;;;8.30;99.90;;;;;;5033805;28;19915;-84
2021/11/05 02:45:58;;;;;;;;;;;8.40;99.90;;;;;;5051164;28;20095;-84
2021/11/05 02:48:27;;;;;;;;;;;8.40;99.90;;;;;;5051912;28;19909;-84
2021/11/05 02:50:53;;;;;;;;;;;8.40;99.90;;;;;;5033819;28;19959;-84
2021/11/05 02:53:18;;;;;;;;;;;8.40;99.90;;;;;;5051594;28;19915;-84
2021/11/05 02:55:44;;;;;;;;;;;8.40;99.90;;;;;;5033391;28;19909;-84
2021/11/05 02:58:10;;;;;;;;;;;8.40;99.90;;;;;;5051495;28;19987;-84
2021/11/05 03:00:36;;;;;;;;;;;8.40;99.90;;;;;;5051364;28;20293;-84
2021/11/05 03:03:01;;;;;;;;;;;8.50;99.90;;;;;;5033549;28;19908;-84
2021/11/05 03:05:27;;;;;;;;;;;8.40;99.90;;;;;;5066691;28;19917;-85
2021/11/05 03:07:52;;;;;;;;;;;8.40;99.90;;;;;;5046367;28;19913;-84
2021/11/05 03:10:18;;;;;;;;;;;8.50;99.90;;;;;;5051731;28;19909;-84
2021/11/05 03:12:44;;;;;;;;;;;8.50;99.90;;;;;;5051266;28;20458;-84
2021/11/05 03:15:10;;;;;;;;;;;8.50;99.90;;;;;;5050867;28;19912;-84
2021/11/05 03:17:36;;;;;;;;;;;8.50;99.90;;;;;;5033190;28;19916;-84
2021/11/05 03:20:04;;;;;;;;;;;8.50;99.90;;;;;;5051180;28;19909;-84
2021/11/05 03:22:29;;;;;;;;;;;8.50;99.90;;;;;;5032959;28;19924;-84
2021/11/05 03:24:55;;;;;;;;;;;8.50;99.90;;;;;;5032990;28;19940;-84
2021/11/05 03:27:20;;;;;;;;;;;8.40;99.90;;;;;;5050854;28;19913;-84
2021/11/05 03:29:46;;;;;;;;;;;8.40;99.90;;;;;;5050623;28;19924;-84
2021/11/05 03:32:11;;;;;;;;;;;8.30;99.90;;;;;;5032789;28;19909;-84
2021/11/05 03:34:37;;;;;;;;;;;8.40;99.90;;;;;;5036966;28;19999;-84
2021/11/05 03:37:03;;;;;;;;;;;8.40;99.90;;;;;;5034533;28;20347;-84
2021/11/05 03:39:29;;;;;;;;;;;8.40;99.90;;;;;;5033050;28;19971;-84
2021/11/05 03:41:55;;;;;;;;;;;8.50;99.90;;;;;;5051399;28;20370;-84
2021/11/05 03:44:21;;;;;;;;;;;8.50;99.90;;;;;;5067457;28;20012;-84
2021/11/05 03:46:46;;;;;;;;;;;8.50;99.90;;;;;;5058404;28;19913;-85
2021/11/05 03:49:12;;;;;;;;;;;8.50;99.90;;;;;;5071092;28;20266;-84
2021/11/05 03:51:38;;;;;;;;;;;8.50;99.90;;;;;;5070302;28;19994;-84
2021/11/05 03:54:04;;;;;;;;;;;8.60;99.90;;;;;;5058726;28;19916;-84
2021/11/05 03:56:30;;;;;;;;;;;8.60;99.90;;;;;;5068034;28;19931;-84
2021/11/05 03:58:56;;;;;;;;;;;8.60;99.90;;;;;;5069173;28;20377;-84
2021/11/05 04:01:21;;;;;;;;;;;8.60;99.90;;;;;;5070617;28;19908;-84
2021/11/05 04:03:47;;;;;;;;;;;8.60;99.90;;;;;;5070529;28;19954;-84
2021/11/05 04:06:13;;;;;;;;;;;8.50;99.90;;;;;;5070366;28;19913;-84
2021/11/05 04:08:39;;;;;;;;;;;8.60;99.90;;;;;;5070791;28;19913;-84
2021/11/05 04:11:04;;;;;;;;;;;8.60;99.90;;;;;;5059254;28;20058;-84
2021/11/05 04:13:30;;;;;;;;;;;8.60;99.90;;;;;;5067225;28;19916;-84
2021/11/05 04:15:55;;;;;;;;;;;8.60;99.90;;;;;;5070268;28;19909;-84
2021/11/05 04:18:21;;;;;;;;;;;8.70;99.90;;;;;;5070266;28;19909;-84
2021/11/05 04:20:49;;;;;;;;;;;8.70;99.90;;;;;;5070384;28;19909;-84
2021/11/05 04:23:17;;;;;;;;;;;8.70;99.90;;;;;;5070370;28;19915;-84
2021/11/05 04:25:43;;;;;;;;;;;8.60;99.90;;;;;;5070020;28;19959;-84
2021/11/05 04:28:09;;;;;;;;;;;8.60;99.90;;;;;;5070199;28;19974;-84
2021/11/05 04:30:35;;;;;;;;;;;8.60;99.90;;;;;;5068314;28;19952;-84
2021/11/05 04:33:00;;;;;;;;;;;8.60;99.90;;;;;;5070114;28;19908;-83
2021/11/05 04:35:26;;;;;;;;;;;8.60;99.90;;;;;;5070591;28;20360;-83
2021/11/05 04:37:51;;;;;;;;;;;8.70;99.90;;;;;;5070052;28;20388;-83
2021/11/05 04:40:17;;;;;;;;;;;8.60;99.90;;;;;;5069648;28;19909;-84
2021/11/05 04:42:42;;;;;;;;;;;8.70;99.90;;;;;;5055884;28;19916;-83
2021/11/05 04:45:08;;;;;;;;;;;8.70;99.90;;;;;;5045405;28;19917;-84
2021/11/05 04:47:33;;;;;;;;;;;8.70;99.90;;;;;;5070341;28;20011;-84
2021/11/05 04:49:59;;;;;;;;;;;8.70;99.90;;;;;;5074044;28;19909;-83
2021/11/05 04:52:25;;;;;;;;;;;8.70;99.90;;;;;;5074375;28;19986;-84
2021/11/05 04:54:51;;;;;;;;;;;8.80;99.90;;;;;;5074210;28;19914;-84
2021/11/05 04:57:16;;;;;;;;;;;8.80;99.90;;;;;;5074366;28;19908;-84
2021/11/05 04:59:42;;;;;;;;;;;8.80;99.90;;;;;;5073681;28;19913;-84
2021/11/05 05:02:07;;;;;;;;;;;8.80;99.90;;;;;;5073786;28;19908;-83
2021/11/05 05:04:33;;;;;;;;;;;8.80;99.90;;;;;;5055526;28;19969;-84
2021/11/05 05:06:58;;;;;;;;;;;8.80;99.90;;;;;;5073632;28;19908;-84
2021/11/05 05:09:24;;;;;;;;;;;8.80;99.90;;;;;;5073493;28;20391;-84
2021/11/05 05:11:49;;;;;;;;;;;8.80;99.90;;;;;;5073632;28;19908;-84
2021/11/05 05:14:16;;;;;;;;;;;8.80;99.90;;;;;;5055722;28;19919;-84
2021/11/05 05:16:41;;;;;;;;;;;8.80;99.90;;;;;;5073685;28;19908;-84
2021/11/05 05:19:07;;;;;;;;;;;8.80;99.90;;;;;;5073361;28;20411;-84
2021/11/05 05:21:33;;;;;;;;;;;8.90;99.90;;;;;;5055158;28;19943;-84
2021/11/05 05:23:58;;;;;;;;;;;8.90;99.90;;;;;;5073214;28;19912;-84
2021/11/05 05:26:24;;;;;;;;;;;8.90;99.90;;;;;;5073147;28;19920;-83
2021/11/05 05:28:49;;;;;;;;;;;8.90;99.90;;;;;;5055151;28;20273;-84
2021/11/05 05:31:15;;;;;;;;;;;8.90;99.90;;;;;;5073271;28;20400;-84
2021/11/05 05:33:42;;;;;;;;;;;8.90;99.90;;;;;;5073031;28;20258;-84
2021/11/05 05:36:08;;;;;;;;;;;8.80;99.90;;;;;;5055239;28;19908;-84
2021/11/05 05:38:35;;;;;;;;;;;8.80;99.90;;;;;;5054950;28;20308;-85
2021/11/05 05:41:00;;;;;;;;;;;8.80;99.90;;;;;;5072832;28;20059;-84
2021/11/05 05:43:26;;;;;;;;;;;8.80;99.90;;;;;;5072863;28;20043;-84
2021/11/05 05:45:52;;;;;;;;;;;8.80;99.90;;;;;;5059139;28;19973;-84
2021/11/05 05:48:18;;;;;;;;;;;8.80;99.90;;;;;;5072991;28;19996;-84
2021/11/05 05:50:43;;;;;;;;;;;8.80;99.90;;;;;;5054756;28;19908;-84
2021/11/05 05:53:09;;;;;;;;;;;8.80;99.90;;;;;;5072969;28;19908;-84
2021/11/05 05:55:35;;;;;;;;;;;8.80;99.90;;;;;;5072931;28;20156;-84
2021/11/05 05:58:01;;;;;;;;;;;8.80;99.90;;;;;;5072960;28;19915;-84
2021/11/05 06:00:29;;;;;;;;;;;8.90;99.90;;;;;;5072501;28;19909;-84
2021/11/05 06:02:55;;;;;;;;;;;8.90;99.90;;;;;;5054264;28;19916;-84
2021/11/05 06:05:20;;;;;;;;;;;8.90;99.90;;;;;;5072873;28;20187;-84
2021/11/05 06:07:46;;;;;;;;;;;8.90;99.90;;;;;;5072587;28;20304;-84
2021/11/05 06:10:11;;;;;;;;;;;8.90;99.90;;;;;;5072703;28;19909;-84
2021/11/05 06:12:37;;;;;;;;;;;8.90;99.90;;;;;;5054541;28;19916;-84
2021/11/05 06:15:04;;;;;;;;;;;8.80;99.90;;;;;;5072169;28;19908;-83
2021/11/05 06:17:29;;;;;;;;;;;8.80;99.90;;;;;;5054147;28;19909;-83
2021/11/05 06:19:55;;;;;;;;;;;8.80;99.90;;;;;;5072350;28;20407;-83
2021/11/05 06:22:20;;;;;;;;;;;8.80;99.90;;;;;;5072643;28;19955;-84
2021/11/05 06:24:46;;;;;;;;;;;8.70;99.90;;;;;;5072065;28;20001;-84
2021/11/05 06:27:12;;;;;;;;;;;8.70;99.90;;;;;;5059050;28;20069;-83
2021/11/05 06:29:38;;;;;;;;;;;8.80;99.90;;;;;;5057493;28;19909;-89
2021/11/05 06:32:04;;;;;;;;;;;8.80;99.90;;;;;;5052570;28;19913;-90
2021/11/05 06:34:29;;;;;;;;;;;8.80;99.90;;;;;;5059215;28;19912;-91
2021/11/05 06:36:55;;;;;;;;;;;8.80;99.90;;;;;;5044605;28;20236;-91
2021/11/05 06:39:20;;;;;;;;;;;8.80;99.90;;;;;;5042223;28;19909;-91
2021/11/05 06:41:46;;;;;;;;;;;8.80;99.90;;;;;;5054905;28;20008;-90
2021/11/05 06:44:12;;;;;;;;;;;8.80;99.90;;;;;;5059420;28;19912;-90
2021/11/05 06:46:37;;;;;;;;;;;8.80;99.90;;;;;;5062775;28;19915;-90
2021/11/05 06:49:03;;;;;;;;;;;8.80;99.90;;;;;;5068894;28;19909;-89
2021/11/05 06:51:28;;;;;;;;;;;8.80;99.90;;;;;;5071407;28;19960;-90
2021/11/05 06:53:54;;;;;;;;;;;8.80;99.90;;;;;;5070952;28;19931;-91
2021/11/05 06:56:19;;;;;;;;;;;8.80;99.90;;;;;;5068897;28;19952;-89
2021/11/05 06:58:46;;;;;;;;;;;8.80;99.90;;;;;;5072473;28;19912;-90
2021/11/05 07:01:11;;;;;;;;;;;8.80;99.90;;;;;;5056602;28;19966;-89
2021/11/05 07:03:37;;;;;;;;;;;8.80;99.90;;;;;;5071378;28;19912;-91
2021/11/05 07:06:02;;;;;;;;;;;8.70;99.90;;;;;;5069912;28;19921;-89
2021/11/05 07:08:29;;;;;;;;;;;8.70;99.90;;;;;;5056615;28;19909;-89
2021/11/05 07:10:55;;;;;;;;;;;8.70;99.90;;;;;;5070200;28;19909;-91
2021/11/05 07:13:21;;;;;;;;;;;8.60;99.90;;;;;;5070557;28;19962;-90
2021/11/05 07:15:47;;;;;;;;;;;8.60;99.90;;;;;;5069908;28;19908;-90
2021/11/05 07:18:13;;;;;;;;;;;8.60;99.90;;;;;;5070882;28;19927;-90
2021/11/05 07:20:38;;;;;;;;;;;8.70;99.90;;;;;;5051390;28;19928;-91
2021/11/05 07:23:05;;;;;;;;;;;8.70;99.90;;;;;;5050554;28;19909;-90
2021/11/05 07:25:31;;;;;;;;;;;8.70;99.90;;;;;;5060741;28;19924;-91
2021/11/05 07:27:57;;;;;;;;;;;8.60;99.90;;;;;;5066101;28;19962;-90
2021/11/05 07:30:23;;;;;;;;;;;8.60;99.90;;;;;;5069515;28;19909;-90
2021/11/05 07:32:50;;;;;;;;;;;8.70;99.90;;;;;;5055679;28;20281;-89
2021/11/05 07:35:16;;;;;;;;;;;8.60;99.90;;;;;;5069721;28;19920;-90
2021/11/05 07:37:43;;;;;;;;;;;8.60;99.90;;;;;;5042980;28;19909;-91
2021/11/05 07:40:09;;;;;;;;;;;8.70;99.90;;;;;;5069632;28;19920;-89
2021/11/05 07:42:39;;;;;;;;;;;8.70;99.90;;;;;;5053087;28;20010;-91
2021/11/05 07:45:06;;;;;;;;;;;8.80;99.90;;;;;;5052681;28;19924;-90
2021/11/05 07:47:32;;;;;;;;;;;8.80;99.90;;;;;;5053016;28;19932;-91
2021/11/05 07:49:58;;;;;;;;;;;8.80;99.90;;;;;;5024996;28;20277;-89
2021/11/05 07:52:23;;;;;;;;;;;8.80;99.90;;;;;;5052976;28;19916;-89
2021/11/05 07:54:51;;;;;;;;;;;8.80;99.90;;;;;;5052717;28;19909;-89
2021/11/05 07:57:17;;;;;;;;;;;8.80;99.90;;;;;;5045294;28;19909;-90
2021/11/05 07:59:42;;;;;;;;;;;8.80;99.90;;;;;;5064511;28;20383;-89
2021/11/05 08:02:08;;;;;;;;;;;8.90;99.90;;;;;;5041852;28;19909;-90
2021/11/05 08:04:34;;;;;;;;;;;8.90;99.90;;;;;;5036010;28;19913;-89
2021/11/05 08:06:59;;;;;;;;;;;9.00;99.90;;;;;;5052434;28;20335;-89
2021/11/05 08:09:25;;;;;;;;;;;8.90;99.90;;;;;;5070809;28;19909;-91
2021/11/05 08:11:51;;;;;;;;;;;9.00;99.90;;;;;;5070490;28;20023;-90
2021/11/05 08:14:16;;;;;;;;;;;9.00;99.90;;;;;;5052223;28;20348;-89
2021/11/05 08:16:42;;;;;;;;;;;9.00;99.90;;;;;;5070356;28;19908;-90
2021/11/05 08:19:08;;;;;;;;;;;9.10;99.90;;;;;;5059363;28;19913;-89
2021/11/05 08:21:33;;;;;;;;;;;9.20;99.90;;;;;;5050352;28;19967;-92
2021/11/05 08:23:59;;;;;;;;;;;9.10;99.90;;;;;;5050166;28;19909;-90
2021/11/05 08:26:25;;;;;;;;;;;9.20;99.90;;;;;;5066880;28;19916;-88
2021/11/05 08:28:51;;;;;;;;;;;9.20;99.90;;;;;;5054770;28;19909;-90
2021/11/05 08:31:17;;;;;;;;;;;9.30;99.90;;;;;;5039798;28;19908;-90
2021/11/05 08:33:42;;;;;;;;;;;9.40;99.90;;;;;;5052116;28;19909;-89
2021/11/05 08:36:09;;;;;;;;;;;9.50;99.90;;;;;;5046800;28;19909;-90
2021/11/05 08:38:35;;;;;;;;;;;9.50;99.90;;;;;;5043514;28;19909;-90
2021/11/05 08:41:00;;;;;;;;;;;9.60;99.90;;;;;;5043017;28;19927;-92
2021/11/05 08:43:31;;;;;;;;;;;9.80;99.90;;;;;;5070280;28;20293;-91
2021/11/05 08:46:01;;;;;;;;;;;9.90;99.90;;;;;;5068508;28;19966;-90
2021/11/05 08:48:28;;;;;;;;;;;10.00;99.90;;;;;;5068942;28;19912;-90
2021/11/05 08:50:54;;;;;;;;;;;10.20;99.90;;;;;;5068919;28;19955;-91
2021/11/05 08:53:20;;;;;;;;;;;10.40;99.90;;;;;;5064307;28;19963;-90
2021/11/05 08:55:46;;;;;;;;;;;10.40;99.90;;;;;;5060151;28;19912;-89
2021/11/05 08:58:11;;;;;;;;;;;10.20;99.90;;;;;;5067410;28;20135;-90
2021/11/05 09:00:37;;;;;;;;;;;10.30;99.90;;;;;;5059669;28;20490;-90
2021/11/05 09:03:04;;;;;;;;;;;10.30;99.90;;;;;;5038103;28;20020;-91
2021/11/05 09:05:29;;;;;;;;;;;10.20;99.90;;;;;;5058816;28;20394;-90
2021/11/05 09:07:55;;;;;;;;;;;10.20;99.90;;;;;;5048805;28;19992;-90
2021/11/05 09:10:21;;;;;;;;;;;10.00;99.90;;;;;;5048495;28;20324;-90
2021/11/05 09:12:47;;;;;;;;;;;10.00;99.90;;;;;;5050212;28;19920;-90
2021/11/05 09:15:16;;;;;;;;;;;10.00;99.90;;;;;;5049733;28;19909;-91
2021/11/05 09:17:41;;;;;;;;;;;10.10;99.90;;;;;;5048529;28;19909;-90
2021/11/05 09:20:08;;;;;;;;;;;10.00;99.90;;;;;;5049830;28;20345;-92
2021/11/05 09:22:34;;;;;;;;;;;10.00;99.90;;;;;;5049762;28;19963;-92
2021/11/05 09:24:59;;;;;;;;;;;10.10;99.90;;;;;;5049567;28;19917;-90
2021/11/05 09:27:26;;;;;;;;;;;10.10;99.90;;;;;;5053249;28;20285;-91
2021/11/05 09:29:52;;;;;;;;;;;10.10;99.90;;;;;;5053448;28;19909;-91
2021/11/05 09:32:18;;;;;;;;;;;10.10;99.90;;;;;;5053416;28;19932;-91
2021/11/05 09:34:43;;;;;;;;;;;10.20;99.90;;;;;;5053387;28;19909;-90
2021/11/05 09:37:09;;;;;;;;;;;10.20;99.90;;;;;;5052176;28;19958;-91
2021/11/05 09:39:35;;;;;;;;;;;10.30;99.90;;;;;;5051875;28;19908;-90
2021/11/05 09:42:00;;;;;;;;;;;10.30;99.90;;;;;;5051966;28;19921;-90
2021/11/05 09:44:28;;;;;;;;;;;10.50;99.90;;;;;;5055814;28;20012;-90
2021/11/05 09:46:54;;;;;;;;;;;10.50;99.90;;;;;;5058974;28;19916;-90
2021/11/05 09:49:20;;;;;;;;;;;10.60;99.90;;;;;;5058920;28;19909;-92
2021/11/05 09:51:45;;;;;;;;;;;10.70;99.90;;;;;;5071806;28;19912;-90
2021/11/05 09:54:12;;;;;;;;;;;10.70;99.90;;;;;;5065082;28;19913;-90
2021/11/05 09:56:38;;;;;;;;;;;10.80;99.90;;;;;;5078383;28;19920;-90
2021/11/05 09:59:03;;;;;;;;;;;10.90;99.90;;;;;;5061417;28;19970;-90
2021/11/05 10:01:29;;;;;;;;;;;11.00;99.90;;;;;;5051692;28;20003;-92
2021/11/05 10:03:55;;;;;;;;;;;11.00;99.90;;;;;;5051547;28;19912;-91
2021/11/05 10:06:22;;;;;;;;;;;11.00;99.90;;;;;;5051482;28;20407;-91
2021/11/05 10:08:51;;;;;;;;;;;11.00;99.90;;;;;;5051530;28;19913;-91
2021/11/05 10:11:24;;;;;;;;;;;11.00;99.90;;;;;;5051277;28;20377;-92
2021/11/05 10:13:50;;;;;;;;;;;11.00;99.90;;;;;;5052520;28;19915;-91
2021/11/05 10:16:17;;;;;;;;;;;11.10;99.90;;;;;;5051082;28;19913;-92
2021/11/05 10:19:00;;;;;;;;;;;11.20;99.90;;;;;;5051394;28;19909;-90
2021/11/05 10:21:25;;;;;;;;;;;11.30;99.90;;;;;;5051350;28;19909;-90
2021/11/05 10:23:51;;;;;;;;;;;11.40;99.90;;;;;;5052985;28;19908;-91
2021/11/05 10:26:32;;;;;;;;;;;11.40;99.90;;;;;;5052874;28;20004;-89
2021/11/05 10:28:59;;;;;;;;;;;11.40;99.90;;;;;;5052742;28;19920;-90
2021/11/05 10:31:27;;;;;;;;;;;11.30;99.90;;;;;;5053340;28;20285;-90
2021/11/05 10:33:52;;;;;;;;;;;11.40;99.90;;;;;;5052305;28;19909;-91
2021/11/05 10:36:20;;;;;;;;;;;11.40;99.90;;;;;;5039373;28;20004;-91
2021/11/05 10:38:46;;;;;;;;;;;11.50;99.90;;;;;;5066884;28;19984;-91
2021/11/05 10:41:12;;;;;;;;;;;11.40;99.90;;;;;;5051748;28;19963;-90
2021/11/05 10:43:37;;;;;;;;;;;11.50;99.90;;;;;;5051658;28;19952;-90
2021/11/05 10:46:04;;;;;;;;;;;11.50;99.90;;;;;;5052702;28;19960;-89
2021/11/05 10:48:34;;;;;;;;;;;11.60;99.90;;;;;;5051955;28;19909;-91
2021/11/05 10:51:03;;;;;;;;;;;11.70;99.90;;;;;;5065600;28;19909;-90
2021/11/05 10:53:36;;;;;;;;;;;11.80;99.90;;;;;;5056584;28;19991;-90
2021/11/05 10:56:05;;;;;;;;;;;11.80;99.90;;;;;;5055552;28;19909;-91
2021/11/05 10:58:38;;;;;;;;;;;11.90;99.90;;;;;;5053211;28;19931;-90
2021/11/05 11:01:03;;;;;;;;;;;11.90;99.90;;;;;;5054900;28;19915;-91
2021/11/05 11:03:33;;;;;;;;;;;11.90;99.90;;;;;;5051531;28;19913;-91
2021/11/05 11:06:03;;;;;;;;;;;12.00;99.90;;;;;;5050943;28;19917;-91
2021/11/05 11:08:32;;;;;;;;;;;12.10;99.90;;;;;;5050914;28;20365;-91
2021/11/05 11:10:59;;;;;;;;;;;12.40;99.90;;;;;;5048265;28;20007;-89
2021/11/05 11:13:26;;;;;;;;;;;12.60;99.90;;;;;;5058304;28;19909;-91
2021/11/05 11:15:52;;;;;;;;;;;12.70;99.90;;;;;;5052954;28;19909;-90
2021/11/05 11:18:17;;;;;;;;;;;12.50;99.90;;;;;;5051474;28;20025;-90
2021/11/05 11:20:43;;;;;;;;;;;12.30;99.90;;;;;;5072102;28;19908;-90
2021/11/05 11:23:09;;;;;;;;;;;12.10;99.90;;;;;;5050588;28;20325;-92
2021/11/05 11:25:36;;;;;;;;;;;12.30;99.90;;;;;;5068713;28;19920;-90
2021/11/05 11:28:01;;;;;;;;;;;12.40;99.90;;;;;;5053930;28;19908;-91
2021/11/05 11:30:27;;;;;;;;;;;12.60;99.90;;;;;;5053011;28;20373;-91
2021/11/05 11:32:57;;;;;;;;;;;12.70;99.90;;;;;;5051575;28;20339;-90
2021/11/05 11:35:36;;;;;;;;;;;12.90;99.90;;;;;;5056348;28;19909;-93
2021/11/05 11:38:02;;;;;;;;;;;13.30;99.90;;;;;;5060698;28;19905;-90
2021/11/05 11:40:28;;;;;;;;;;;13.60;99.90;;;;;;5062535;28;19967;-90
2021/11/05 11:42:54;;;;;;;;;;;13.90;99.90;;;;;;5074428;28;20220;-89
2021/11/05 11:45:20;;;;;;;;;;;14.00;99.90;;;;;;5073938;28;20201;-90
2021/11/05 11:47:49;;;;;;;;;;;13.90;99.90;;;;;;5054513;28;19915;-90
2021/11/05 11:50:29;;;;;;;;;;;13.80;99.90;;;;;;5054085;28;19904;-92
2021/11/05 11:52:59;;;;;;;;;;;13.70;99.90;;;;;;5052809;28;19909;-90
2021/11/05 11:55:26;;;;;;;;;;;13.70;99.90;;;;;;5062405;28;19923;-90
2021/11/05 11:58:07;;;;;;;;;;;13.80;99.90;;;;;;5055263;28;20012;-91
2021/11/05 12:00:34;;;;;;;;;;;14.10;99.90;;;;;;5061002;28;19908;-91
2021/11/05 12:03:07;;;;;;;;;;;14.40;99.90;;;;;;5059702;28;19908;-90
2021/11/05 12:05:32;;;;;;;;;;;14.70;99.90;;;;;;5060132;28;19920;-90
2021/11/05 12:08:16;;;;;;;;;;;14.70;99.90;;;;;;5056311;28;19991;-90
2021/11/05 12:10:43;;;;;;;;;;;14.80;99.90;;;;;;5066982;28;20365;-91
2021/11/05 12:13:28;;;;;;;;;;;14.70;99.90;;;;;;5053571;28;19909;-90
2021/11/05 12:16:08;;;;;;;;;;;14.50;99.90;;;;;;5048165;28;20376;-90
2021/11/05 12:18:54;;;;;;;;;;;14.20;99.90;;;;;;5046929;28;19908;-89
2021/11/05 12:21:20;;;;;;;;;;;13.90;99.90;;;;;;5048799;28;19909;-91
2021/11/05 12:23:45;;;;;;;;;;;13.60;99.90;;;;;;5051673;28;19919;-89
2021/11/05 12:26:11;;;;;;;;;;;13.50;99.90;;;;;;5053222;28;19950;-89
2021/11/05 12:28:41;;;;;;;;;;;13.30;99.90;;;;;;5062218;28;19948;-90
2021/11/05 12:31:25;;;;;;;;;;;13.10;99.90;;;;;;5053770;28;19909;-91
2021/11/05 12:33:51;;;;;;;;;;;12.80;99.90;;;;;;5049142;28;19909;-90
2021/11/05 12:36:16;;;;;;;;;;;12.70;99.90;;;;;;5048158;28;20145;-90
2021/11/05 12:39:02;;;;;;;;;;;12.50;99.90;;;;;;5056483;28;20136;-90
2021/11/05 12:41:28;;;;;;;;;;;12.60;99.90;;;;;;5053178;28;19928;-91
2021/11/05 12:44:08;;;;;;;;;;;12.80;99.90;;;;;;5036298;28;19909;-90
2021/11/05 12:46:42;;;;;;;;;;;13.10;99.90;;;;;;5060254;28;19927;-90
2021/11/05 12:49:12;;;;;;;;;;;13.80;99.90;;;;;;5049669;28;20377;-90
2021/11/05 12:51:42;;;;;;;;;;;14.50;99.90;;;;;;5031836;28;19935;-92
2021/11/05 12:54:10;;;;;;;;;;;14.60;99.90;;;;;;5037353;28;19908;-90
2021/11/05 12:56:38;;;;;;;;;;;14.60;99.90;;;;;;5052223;28;19919;-92
2021/11/05 12:59:11;;;;;;;;;;;14.40;99.90;;;;;;5049788;28;19909;-91
2021/11/05 13:01:36;;;;;;;;;;;14.30;99.90;;;;;;5031766;28;19913;-89
2021/11/05 13:04:06;;;;;;;;;;;13.90;99.90;;;;;;5032642;28;19909;-90
2021/11/05 13:06:38;;;;;;;;;;;13.50;99.90;;;;;;5031219;28;19920;-90
2021/11/05 13:09:18;;;;;;;;;;;13.10;99.90;;;;;;5046277;28;19909;-89
2021/11/05 13:11:57;;;;;;;;;;;12.90;99.90;;;;;;5039976;28;19913;-90
2021/11/05 13:14:41;;;;;;;;;;;12.90;99.90;;;;;;5036005;28;20008;-89
2021/11/05 13:17:15;;;;;;;;;;;12.90;99.90;;;;;;5023925;28;19962;-91
2021/11/05 13:19:48;;;;;;;;;;;13.00;99.90;;;;;;5053949;28;19991;-91
2021/11/05 13:22:15;;;;;;;;;;;13.00;99.90;;;;;;5036055;28;20285;-90
2021/11/05 13:24:41;;;;;;;;;;;12.80;99.90;;;;;;5053760;28;19913;-90
2021/11/05 13:27:07;;;;;;;;;;;12.80;99.90;;;;;;5036379;28;19909;-91
2021/11/05 13:29:33;;;;;;;;;;;12.80;99.90;;;;;;5035974;28;19909;-90
2021/11/05 13:32:12;;;;;;;;;;;12.80;99.90;;;;;;5035754;28;19909;-90
2021/11/05 13:34:38;;;;;;;;;;;12.70;99.90;;;;;;5055318;28;20284;-90
2021/11/05 13:37:03;;;;;;;;;;;13.00;99.90;;;;;;5039341;28;19999;-90
2021/11/05 13:39:29;;;;;;;;;;;13.20;99.90;;;;;;5062605;28;20350;-93
2021/11/05 13:41:54;;;;;;;;;;;13.50;99.90;;;;;;5059813;28;19921;-90
2021/11/05 13:44:20;;;;;;;;;;;13.70;99.90;;;;;;5065754;28;19921;-90
2021/11/05 13:46:46;;;;;;;;;;;13.80;99.90;;;;;;5045384;28;19970;-91
2021/11/05 13:49:13;;;;;;;;;;;13.80;99.90;;;;;;5073567;28;19978;-90
2021/11/05 13:51:40;;;;;;;;;;;13.70;99.90;;;;;;5059160;28;20384;-90
2021/11/05 13:54:13;;;;;;;;;;;13.70;99.90;;;;;;5073042;28;19919;-89
2021/11/05 13:56:46;;;;;;;;;;;14.00;99.90;;;;;;5070135;28;19921;-90
2021/11/05 13:59:15;;;;;;;;;;;14.40;99.90;;;;;;5069067;28;19908;-89
2021/11/05 14:01:43;;;;;;;;;;;14.50;99.90;;;;;;5057302;28;19915;-91
2021/11/05 14:04:08;;;;;;;;;;;14.50;99.90;;;;;;5052310;28;20004;-89
2021/11/05 14:06:40;;;;;;;;;;;14.40;99.90;;;;;;5050647;28;20014;-89
2021/11/05 14:09:06;;;;;;;;;;;14.20;99.90;;;;;;5046555;28;19909;-89
2021/11/05 14:11:36;;;;;;;;;;;13.90;99.90;;;;;;5072189;28;19909;-89
2021/11/05 14:14:03;;;;;;;;;;;13.70;99.90;;;;;;5070784;28;19912;-89
2021/11/05 14:16:30;;;;;;;;;;;13.50;99.90;;;;;;5072255;28;19975;-90
2021/11/05 14:19:09;;;;;;;;;;;13.30;99.90;;;;;;5072168;28;19916;-89
2021/11/05 14:21:35;;;;;;;;;;;13.20;99.90;;;;;;5070901;28;19908;-89
2021/11/05 14:24:12;;;;;;;;;;;13.00;99.90;;;;;;5073371;28;19916;-89